Time,TemperatureF,DewpointF,PressureIn,WindDirection,WindDirectionDegrees,WindSpeedMPH,WindSpeedGustMPH,Humidity,HourlyPrecipIn,Conditions,Clouds,dailyrainin,SoftwareType,DateUTC
2013-07-10 00:02:00,64.0,56.0,29.98,WNW,284,1.0,3.0,74,0.00,,,0.83,,2013-07-10 05:02:00,
2013-07-10 00:12:00,64.0,56.0,29.98,WNW,284,1.0,3.0,74,0.00,,,0.83,,2013-07-10 05:12:00,
2013-07-10 00:22:00,63.0,55.0,29.99,West,281,1.0,4.0,74,0.00,,,0.83,,2013-07-10 05:22:00,
2013-07-10 00:32:00,63.0,54.0,29.99,WNW,300,1.0,5.0,72,0.00,,,0.83,,2013-07-10 05:32:00,
2013-07-10 00:42:00,63.0,54.0,29.99,WNW,300,1.0,5.0,72,0.00,,,0.83,,2013-07-10 05:42:00,
2013-07-10 00:53:00,63.0,54.0,30.00,WSW,254,1.0,6.0,72,0.00,,,0.83,,2013-07-10 05:53:00,
2013-07-10 01:01:00,63.0,54.0,30.00,WNW,296,2.0,5.0,72,0.00,,,0.83,,2013-07-10 06:01:00,
2013-07-10 01:11:00,63.0,54.0,30.00,WNW,296,2.0,5.0,72,0.00,,,0.83,,2013-07-10 06:11:00,
2013-07-10 01:21:00,62.0,53.0,30.00,WNW,286,1.0,5.0,73,0.00,,,0.83,,2013-07-10 06:21:00,
2013-07-10 01:32:00,62.0,53.0,30.01,WNW,285,2.0,5.0,73,0.00,,,0.83,,2013-07-10 06:32:00,
2013-07-10 01:42:00,62.0,53.0,30.01,WNW,285,2.0,5.0,73,0.00,,,0.83,,2013-07-10 06:42:00,
2013-07-10 01:52:00,62.0,53.0,30.01,West,281,1.0,5.0,73,0.00,,,0.83,,2013-07-10 06:52:00,
2013-07-10 02:01:00,61.0,52.0,30.01,West,262,2.0,5.0,72,0.00,,,0.83,,2013-07-10 07:01:00,
2013-07-10 02:11:00,61.0,52.0,30.01,West,262,2.0,5.0,72,0.00,,,0.83,,2013-07-10 07:11:00,
2013-07-10 02:22:00,61.0,52.0,30.02,West,267,2.0,6.0,73,0.00,,,0.83,,2013-07-10 07:22:00,
2013-07-10 02:33:00,60.0,52.0,30.02,West,262,2.0,4.0,74,0.00,,,0.83,,2013-07-10 07:33:00,
2013-07-10 02:43:00,60.0,52.0,30.02,West,262,2.0,4.0,74,0.00,,,0.83,,2013-07-10 07:43:00,
2013-07-10 02:53:00,60.0,52.0,30.02,WSW,245,3.0,6.0,74,0.00,,,0.82,,2013-07-10 07:53:00,
2013-07-10 03:11:00,59.0,50.0,30.03,WNW,286,2.0,5.0,73,0.00,,,0.82,,2013-07-10 08:11:00,
2013-07-10 03:23:00,59.0,51.0,30.03,WSW,248,2.0,5.0,74,0.00,,,0.82,,2013-07-10 08:23:00,
2013-07-10 03:33:00,59.0,50.0,30.03,West,267,3.0,6.0,73,0.00,,,0.82,,2013-07-10 08:33:00,
2013-07-10 03:42:00,59.0,50.0,30.03,West,267,3.0,6.0,73,0.00,,,0.82,,2013-07-10 08:42:00,
2013-07-10 03:53:00,58.0,50.0,30.04,West,259,3.0,7.0,74,0.00,,,0.82,,2013-07-10 08:53:00,
2013-07-10 04:02:00,58.0,50.0,30.04,WSW,250,3.0,5.0,74,0.00,,,0.82,,2013-07-10 09:02:00,
2013-07-10 04:12:00,58.0,50.0,30.04,WSW,250,3.0,5.0,74,0.00,,,0.82,,2013-07-10 09:12:00,
2013-07-10 04:22:00,58.0,49.0,30.04,WSW,254,2.0,7.0,73,0.00,,,0.82,,2013-07-10 09:22:00,
2013-07-10 04:32:00,58.0,50.0,30.04,WSW,256,1.0,4.0,74,0.00,,,0.82,,2013-07-10 09:32:00,
2013-07-10 04:42:00,58.0,50.0,30.04,WSW,256,1.0,4.0,74,0.00,,,0.82,,2013-07-10 09:42:00,
2013-07-10 04:53:00,58.0,50.0,30.04,West,267,0.0,5.0,75,0.00,,,0.71,,2013-07-10 09:53:00,
2013-07-10 05:01:00,57.0,49.0,30.04,West,267,0.0,3.0,75,0.00,,,0.71,,2013-07-10 10:01:00,
2013-07-10 05:13:00,57.0,49.0,30.04,West,267,0.0,3.0,75,0.00,,,0.71,,2013-07-10 10:13:00,
2013-07-10 05:23:00,57.0,49.0,30.04,West,264,1.0,4.0,75,0.00,,,0.71,,2013-07-10 10:23:00,
2013-07-10 05:32:00,57.0,49.0,30.05,West,262,1.0,4.0,75,0.00,,,0.71,,2013-07-10 10:32:00,
2013-07-10 05:50:00,-999.0,-99.9,30.05,West,262,1.0,4.0,-999,-99.99,,,-99.99,,2013-07-10 10:50:00,
2013-07-10 06:00:00,-999.0,-99.9,30.05,West,266,0.0,4.0,-999,-99.99,,,-99.99,,2013-07-10 11:00:00,
2013-07-10 06:11:00,57.0,49.0,30.06,West,266,1.0,5.0,75,0.00,,,0.05,,2013-07-10 11:11:00,
2013-07-10 06:33:00,56.0,48.0,30.06,SW,236,3.0,4.0,75,0.00,,,0.05,,2013-07-10 11:33:00,
2013-07-10 06:43:00,56.0,48.0,30.06,SW,236,3.0,4.0,75,0.00,,,0.05,,2013-07-10 11:43:00,
2013-07-10 06:52:00,57.0,49.0,30.06,WSW,246,2.0,5.0,74,0.00,,,0.00,,2013-07-10 11:52:00,
2013-07-10 07:01:00,58.0,49.0,30.06,WSW,256,0.0,4.0,73,0.00,,,0.00,,2013-07-10 12:01:00,
2013-07-10 07:11:00,58.0,49.0,30.06,WSW,256,0.0,4.0,73,0.00,,,0.00,,2013-07-10 12:11:00,
2013-07-10 07:22:00,58.0,49.0,30.07,WSW,241,0.0,4.0,73,0.00,,,0.00,,2013-07-10 12:22:00,
2013-07-10 07:33:00,59.0,49.0,30.07,WSW,238,0.0,3.0,70,0.00,,,0.00,,2013-07-10 12:33:00,
2013-07-10 07:43:00,59.0,49.0,30.07,WSW,238,0.0,3.0,70,0.00,,,0.00,,2013-07-10 12:43:00,
2013-07-10 07:53:00,60.0,49.0,30.07,West,265,1.0,3.0,68,0.00,,,0.00,,2013-07-10 12:53:00,
2013-07-10 08:01:00,61.0,50.0,30.07,WSW,258,1.0,4.0,66,0.00,,,0.00,,2013-07-10 13:01:00,
2013-07-10 08:11:00,61.0,50.0,30.07,WSW,258,1.0,4.0,66,0.00,,,0.00,,2013-07-10 13:11:00,
2013-07-10 08:21:00,62.0,50.0,30.07,West,261,0.0,4.0,65,0.00,,,0.00,,2013-07-10 13:21:00,
2013-07-10 08:32:00,63.0,51.0,30.07,WSW,237,3.0,6.0,64,0.00,,,0.00,,2013-07-10 13:32:00,
2013-07-10 08:43:00,63.0,51.0,30.07,WSW,237,3.0,6.0,64,0.00,,,0.00,,2013-07-10 13:43:00,
2013-07-10 08:52:00,64.0,51.0,30.08,West,265,2.0,6.0,62,0.00,,,0.00,,2013-07-10 13:52:00,
2013-07-10 09:01:00,65.0,50.0,30.08,West,260,3.0,8.0,58,0.00,,,0.00,,2013-07-10 14:01:00,
2013-07-10 09:11:00,65.0,50.0,30.08,West,260,3.0,8.0,58,0.00,,,0.00,,2013-07-10 14:11:00,
2013-07-10 09:22:00,66.0,50.0,30.08,WNW,288,3.0,8.0,57,0.00,,,0.00,,2013-07-10 14:22:00,
2013-07-10 10:34:00,70.0,49.0,30.08,West,279,1.0,5.0,48,0.00,,,0.00,,2013-07-10 15:34:00,
2013-07-10 10:42:00,70.0,49.0,30.08,West,279,1.0,5.0,48,0.00,,,0.00,,2013-07-10 15:42:00,
2013-07-10 11:01:00,71.0,55.0,30.08,NNW,346,3.0,6.0,58,0.00,,,0.00,,2013-07-10 16:01:00,
2013-07-10 11:11:00,71.0,55.0,30.08,NNW,346,3.0,6.0,58,0.00,,,0.00,,2013-07-10 16:11:00,
2013-07-10 11:22:00,71.0,55.0,30.08,NNE,15,1.0,6.0,57,0.00,,,0.00,,2013-07-10 16:22:00,
2013-07-10 11:33:00,71.0,56.0,30.07,West,281,0.0,7.0,59,0.00,,,0.00,,2013-07-10 16:33:00,
2013-07-10 11:44:00,71.0,56.0,30.07,West,281,0.0,7.0,59,0.00,,,0.00,,2013-07-10 16:44:00,
2013-07-10 11:53:00,71.0,55.0,30.07,WSW,250,1.0,6.0,58,0.00,,,0.00,,2013-07-10 16:53:00,
2013-07-10 12:02:00,72.0,56.0,30.07,West,277,3.0,8.0,58,0.00,,,0.00,,2013-07-10 17:02:00,
2013-07-10 12:11:00,72.0,56.0,30.07,West,277,3.0,8.0,58,0.00,,,0.00,,2013-07-10 17:11:00,
2013-07-10 12:23:00,72.0,56.0,30.07,SW,216,0.0,4.0,57,0.00,,,0.00,,2013-07-10 17:23:00,
2013-07-10 12:32:00,73.0,57.0,30.07,NNW,334,2.0,5.0,57,0.00,,,0.00,,2013-07-10 17:32:00,
2013-07-10 12:42:00,73.0,57.0,30.07,NNW,334,2.0,5.0,57,0.00,,,0.00,,2013-07-10 17:42:00,
2013-07-10 12:53:00,74.0,57.0,30.06,North,5,1.0,5.0,56,0.00,,,0.00,,2013-07-10 17:53:00,
2013-07-10 13:02:00,74.0,58.0,30.06,West,280,1.0,5.0,57,0.00,,,0.00,,2013-07-10 18:02:00,
2013-07-10 13:11:00,74.0,58.0,30.06,West,280,1.0,5.0,57,0.00,,,0.00,,2013-07-10 18:11:00,
2013-07-10 13:21:00,74.0,56.0,30.06,West,267,2.0,7.0,53,0.00,,,0.00,,2013-07-10 18:21:00,
2013-07-10 13:32:00,75.0,57.0,30.06,WNW,286,2.0,7.0,53,0.00,,,0.00,,2013-07-10 18:32:00,
2013-07-10 13:44:00,75.0,57.0,30.06,WNW,286,2.0,7.0,53,0.00,,,0.00,,2013-07-10 18:44:00,
2013-07-10 13:53:00,75.0,57.0,30.05,WNW,289,1.0,6.0,53,0.00,,,0.00,,2013-07-10 18:53:00,
2013-07-10 14:01:00,76.0,56.0,30.05,ESE,102,1.0,7.0,50,0.00,,,0.00,,2013-07-10 19:01:00,
2013-07-10 14:11:00,76.0,56.0,30.05,ESE,102,1.0,7.0,50,0.00,,,0.00,,2013-07-10 19:11:00,
2013-07-10 14:21:00,77.0,56.0,30.04,SE,140,0.0,5.0,49,0.00,,,0.00,,2013-07-10 19:21:00,
2013-07-10 14:32:00,78.0,58.0,30.03,SW,224,1.0,4.0,51,0.00,,,0.00,,2013-07-10 19:32:00,
2013-07-10 14:42:00,78.0,58.0,30.03,SW,224,1.0,4.0,51,0.00,,,0.00,,2013-07-10 19:42:00,
2013-07-10 14:53:00,76.0,57.0,30.03,North,9,1.0,6.0,51,0.00,,,0.00,,2013-07-10 19:53:00,
2013-07-10 15:01:00,77.0,57.0,30.03,South,180,0.0,4.0,51,0.00,,,0.00,,2013-07-10 20:01:00,
2013-07-10 15:11:00,77.0,57.0,30.03,South,180,0.0,4.0,51,0.00,,,0.00,,2013-07-10 20:11:00,
2013-07-10 15:22:00,79.0,59.0,30.03,SSW,198,0.0,4.0,50,0.00,,,0.00,,2013-07-10 20:22:00,
2013-07-10 15:32:00,79.0,58.0,30.02,SSE,147,0.0,5.0,49,0.00,,,0.00,,2013-07-10 20:32:00,
2013-07-10 15:43:00,79.0,58.0,30.02,SSE,147,0.0,5.0,49,0.00,,,0.00,,2013-07-10 20:43:00,
2013-07-10 15:52:00,78.0,58.0,30.02,WSW,241,0.0,5.0,50,0.00,,,0.00,,2013-07-10 20:52:00,
2013-07-10 16:01:00,78.0,59.0,30.01,SSW,194,2.0,5.0,53,0.00,,,0.00,,2013-07-10 21:01:00,
2013-07-10 16:11:00,78.0,59.0,30.01,SSW,194,2.0,5.0,53,0.00,,,0.00,,2013-07-10 21:11:00,
2013-07-10 16:22:00,79.0,58.0,30.01,SW,225,1.0,5.0,48,0.00,,,0.00,,2013-07-10 21:22:00,
2013-07-10 16:32:00,79.0,59.0,30.00,SE,142,3.0,7.0,50,0.00,,,0.00,,2013-07-10 21:32:00,
2013-07-10 16:41:00,79.0,59.0,30.00,SE,142,3.0,7.0,50,0.00,,,0.00,,2013-07-10 21:41:00,
2013-07-10 16:52:00,79.0,60.0,30.00,South,169,0.0,4.0,52,0.00,,,0.00,,2013-07-10 21:52:00,
2013-07-10 17:01:00,81.0,59.0,29.99,SW,230,0.0,5.0,48,0.00,,,0.00,,2013-07-10 22:01:00,
2013-07-10 17:11:00,81.0,59.0,29.99,SW,230,0.0,5.0,48,0.00,,,0.00,,2013-07-10 22:11:00,
2013-07-10 17:21:00,80.0,60.0,29.99,West,275,0.0,2.0,50,0.00,,,0.00,,2013-07-10 22:21:00,
2013-07-10 17:33:00,81.0,60.0,29.98,SSW,198,0.0,2.0,49,0.00,,,0.00,,2013-07-10 22:33:00,
2013-07-10 17:42:00,81.0,60.0,29.98,SSW,198,0.0,2.0,49,0.00,,,0.00,,2013-07-10 22:42:00,
2013-07-10 17:53:00,80.0,60.0,29.98,East,80,1.0,4.0,51,0.00,,,0.00,,2013-07-10 22:53:00,
2013-07-10 18:01:00,80.0,60.0,29.98,South,175,0.0,2.0,51,0.00,,,0.00,,2013-07-10 23:01:00,
2013-07-10 18:11:00,80.0,60.0,29.98,South,175,0.0,2.0,51,0.00,,,0.00,,2013-07-10 23:11:00,
2013-07-10 18:22:00,81.0,59.0,29.97,SW,225,0.0,3.0,48,0.00,,,0.00,,2013-07-10 23:22:00,
2013-07-10 18:32:00,79.0,60.0,29.97,East,91,3.0,7.0,53,0.00,,,0.00,,2013-07-10 23:32:00,
2013-07-10 18:43:00,79.0,60.0,29.97,East,91,3.0,7.0,53,0.00,,,0.00,,2013-07-10 23:43:00,
2013-07-10 18:52:00,76.0,60.0,29.97,East,84,1.0,5.0,58,0.00,,,0.00,,2013-07-10 23:52:00,
2013-07-10 19:01:00,75.0,59.0,29.98,ENE,76,0.0,1.0,58,0.00,,,0.00,,2013-07-11 00:01:00,
2013-07-10 19:11:00,75.0,59.0,29.98,ENE,76,0.0,1.0,58,0.00,,,0.00,,2013-07-11 00:11:00,
2013-07-10 19:22:00,76.0,60.0,29.98,ENE,76,0.0,1.0,57,0.00,,,0.00,,2013-07-11 00:22:00,
2013-07-10 19:32:00,76.0,60.0,29.98,ENE,76,0.0,1.0,57,0.00,,,0.00,,2013-07-11 00:32:00,
2013-07-10 19:42:00,77.0,61.0,29.98,ENE,76,0.0,1.0,57,0.00,,,0.00,,2013-07-11 00:42:00,
2013-07-10 19:52:00,77.0,61.0,29.98,ENE,77,0.0,1.0,57,0.00,,,0.00,,2013-07-11 00:52:00,
2013-07-10 20:01:00,77.0,61.0,29.98,ENE,77,0.0,1.0,57,0.00,,,0.00,,2013-07-11 01:01:00,
2013-07-10 20:11:00,77.0,61.0,29.97,ENE,78,0.0,0.0,57,0.00,,,0.00,,2013-07-11 01:11:00,
2013-07-10 20:22:00,77.0,61.0,29.97,ENE,78,0.0,0.0,57,0.00,,,0.00,,2013-07-11 01:22:00,
2013-07-10 20:32:00,76.0,59.0,29.97,ENE,78,0.0,1.0,56,0.00,,,0.00,,2013-07-11 01:32:00,
2013-07-10 20:43:00,76.0,59.0,29.97,ENE,78,0.0,1.0,56,0.00,,,0.00,,2013-07-11 01:43:00,
2013-07-10 20:52:00,77.0,61.0,29.98,ENE,78,0.0,0.0,57,0.00,,,0.00,,2013-07-11 01:52:00,
2013-07-10 21:02:00,76.0,60.0,29.98,ENE,78,0.0,0.0,58,0.00,,,0.00,,2013-07-11 02:02:00,
2013-07-10 21:11:00,76.0,60.0,29.98,ENE,78,0.0,0.0,58,0.00,,,0.00,,2013-07-11 02:11:00,
2013-07-10 21:22:00,75.0,59.0,29.98,ENE,78,0.0,1.0,58,0.00,,,0.00,,2013-07-11 02:22:00,
2013-07-10 21:32:00,73.0,56.0,29.98,East,86,0.0,0.0,56,0.00,,,0.00,,2013-07-11 02:32:00,
2013-07-10 21:43:00,73.0,56.0,29.98,East,86,0.0,0.0,56,0.00,,,0.00,,2013-07-11 02:43:00,
2013-07-10 22:01:00,71.0,52.0,29.99,East,86,0.0,0.0,51,0.00,,,0.00,,2013-07-11 03:01:00,
2013-07-10 22:11:00,71.0,52.0,29.99,East,86,0.0,0.0,51,0.00,,,0.00,,2013-07-11 03:11:00,
2013-07-10 22:21:00,70.0,52.0,29.99,East,85,0.0,1.0,52,0.00,,,0.00,,2013-07-11 03:21:00,
2013-07-10 22:33:00,70.0,52.0,29.99,East,85,0.0,1.0,52,0.00,,,0.00,,2013-07-11 03:33:00,
2013-07-10 22:42:00,70.0,52.0,29.99,East,85,0.0,1.0,52,0.00,,,0.00,,2013-07-11 03:42:00,
2013-07-10 22:52:00,69.0,51.0,30.00,East,92,0.0,0.0,53,0.00,,,0.00,,2013-07-11 03:52:00,
2013-07-10 23:01:00,69.0,54.0,30.00,SSE,154,0.0,3.0,59,0.00,,,0.00,,2013-07-11 04:01:00,
2013-07-10 23:12:00,69.0,54.0,30.00,SSE,154,0.0,3.0,59,0.00,,,0.00,,2013-07-11 04:12:00,
2013-07-10 23:22:00,69.0,55.0,30.00,SSE,167,0.0,3.0,60,0.00,,,0.00,,2013-07-11 04:22:00,
2013-07-10 23:32:00,68.0,54.0,30.01,SSE,168,0.0,1.0,62,0.00,,,0.00,,2013-07-11 04:32:00,
2013-07-10 23:42:00,68.0,54.0,30.01,SSE,168,0.0,1.0,62,0.00,,,0.00,,2013-07-11 04:42:00,
2013-07-10 23:53:00,67.0,54.0,30.01,SSE,168,0.0,1.0,62,0.00,,,0.00,,2013-07-11 04:53:00,